createdAt,value
2023-12-08T00:00:49.726Z,2.99
2023-12-08T00:03:16.747Z,3.02
2023-12-08T00:05:43.358Z,3.01
2023-12-08T00:08:10.294Z,2.99
2023-12-08T00:10:37.026Z,2.96
2023-12-08T00:13:03.677Z,3.03
2023-12-08T00:15:30.351Z,3.05
2023-12-08T00:17:57.126Z,3.12
2023-12-08T00:20:24.935Z,3.12
2023-12-08T00:22:51.635Z,3.09
2023-12-08T00:25:18.350Z,3.12
2023-12-08T00:27:44.864Z,3.09
2023-12-08T00:30:13.093Z,3.15
2023-12-08T00:32:39.850Z,3.16
2023-12-08T00:35:07.211Z,3.23
2023-12-08T00:37:34.265Z,3.25
2023-12-08T00:40:01.178Z,3.22
2023-12-08T00:42:28.967Z,3.20
2023-12-08T00:44:55.586Z,3.21
2023-12-08T00:47:22.267Z,3.27
2023-12-08T00:49:48.791Z,3.23
2023-12-08T00:52:15.613Z,3.21
2023-12-08T00:54:42.235Z,3.18
2023-12-08T00:57:09.529Z,3.14
2023-12-08T00:59:36.295Z,3.21
2023-12-08T01:02:03.010Z,3.20
2023-12-08T01:04:29.688Z,3.15
2023-12-08T01:06:56.274Z,3.18
2023-12-08T01:09:23.016Z,3.18
2023-12-08T01:11:49.925Z,3.22
2023-12-08T01:14:16.668Z,3.22
2023-12-08T01:16:43.698Z,3.19
2023-12-08T01:19:12.190Z,3.20
2023-12-08T01:21:39.991Z,3.26
2023-12-08T01:24:07.770Z,3.25
2023-12-08T01:26:34.909Z,3.20
2023-12-08T01:29:01.640Z,3.25
2023-12-08T01:31:28.204Z,3.26
2023-12-08T01:33:54.983Z,3.27
2023-12-08T01:36:39.684Z,3.25
2023-12-08T01:39:08.311Z,3.23
2023-12-08T01:41:35.059Z,3.19
2023-12-08T01:44:01.583Z,3.22
2023-12-08T01:46:29.529Z,3.21
2023-12-08T01:48:56.566Z,3.19
2023-12-08T01:51:23.510Z,3.23
2023-12-08T01:53:51.468Z,3.28
2023-12-08T01:56:18.190Z,3.21
2023-12-08T01:58:45.472Z,3.23
2023-12-08T02:01:12.136Z,3.22
2023-12-08T02:03:40.426Z,3.25
2023-12-08T02:06:08.081Z,3.28
2023-12-08T02:08:35.131Z,3.25
2023-12-08T02:11:01.895Z,3.30
2023-12-08T02:13:28.628Z,3.33
2023-12-08T02:16:00.301Z,3.32
2023-12-08T02:18:27.255Z,3.33
2023-12-08T02:20:54.210Z,3.33
2023-12-08T02:23:21.301Z,3.38
2023-12-08T02:25:47.891Z,3.36
2023-12-08T02:28:14.652Z,3.41
2023-12-08T02:30:41.337Z,3.41
2023-12-08T02:33:20.053Z,3.39
2023-12-08T02:35:47.054Z,3.42
2023-12-08T02:38:18.367Z,3.40
2023-12-08T02:40:45.101Z,3.46
2023-12-08T02:43:11.990Z,3.49
2023-12-08T02:45:38.763Z,3.49
2023-12-08T02:48:05.709Z,3.47
2023-12-08T02:50:32.474Z,3.43
2023-12-08T02:52:59.137Z,3.39
2023-12-08T02:55:25.672Z,3.06
2023-12-08T02:57:52.398Z,3.11
2023-12-08T03:00:19.337Z,3.25
2023-12-08T03:02:45.996Z,3.22
2023-12-08T03:05:12.759Z,3.27
2023-12-08T03:07:39.511Z,3.27
2023-12-08T03:10:06.596Z,3.20
2023-12-08T03:12:33.563Z,2.93
2023-12-08T03:15:00.526Z,3.00
2023-12-08T03:17:28.285Z,3.04
2023-12-08T03:19:55.067Z,2.89
2023-12-08T03:22:21.812Z,2.94
2023-12-08T03:24:48.627Z,3.06
2023-12-08T03:27:15.405Z,3.11
2023-12-08T03:29:42.463Z,3.13
2023-12-08T03:32:09.055Z,3.14
2023-12-08T03:34:35.896Z,3.14
2023-12-08T03:37:02.771Z,3.08
2023-12-08T03:39:29.248Z,3.09
2023-12-08T03:41:55.983Z,2.96
2023-12-08T03:44:22.759Z,2.97
2023-12-08T03:46:49.386Z,3.05
2023-12-08T03:49:16.115Z,3.06
2023-12-08T03:51:43.033Z,3.09
2023-12-08T03:54:09.554Z,2.98
2023-12-08T03:56:36.211Z,2.93
2023-12-08T03:59:02.861Z,3.04
2023-12-08T04:01:29.371Z,3.01
2023-12-08T04:03:56.074Z,3.05
2023-12-08T04:06:22.979Z,3.07
2023-12-08T04:08:49.670Z,3.07
2023-12-08T04:11:16.226Z,3.03
2023-12-08T04:13:42.828Z,3.03
2023-12-08T04:16:09.605Z,3.05
2023-12-08T04:18:37.160Z,3.09
2023-12-08T04:21:03.902Z,3.13
2023-12-08T04:23:30.460Z,3.13
2023-12-08T04:25:58.863Z,3.17
2023-12-08T04:28:26.338Z,3.17
2023-12-08T04:30:53.028Z,3.23
2023-12-08T04:33:19.795Z,3.22
2023-12-08T04:35:46.703Z,3.25
2023-12-08T04:38:13.310Z,3.17
2023-12-08T04:40:39.938Z,3.22
2023-12-08T04:43:06.603Z,3.18
2023-12-08T04:45:33.089Z,3.22
2023-12-08T04:47:59.949Z,3.23
2023-12-08T04:50:27.277Z,3.28
2023-12-08T04:52:54.066Z,3.31
2023-12-08T04:55:20.704Z,3.35
2023-12-08T04:57:47.587Z,3.32
2023-12-08T05:00:14.360Z,3.36
2023-12-08T05:02:41.002Z,3.11
2023-12-08T05:05:07.901Z,2.88
2023-12-08T05:07:34.516Z,2.86
2023-12-08T05:10:01.549Z,2.96
2023-12-08T05:12:28.377Z,2.82
2023-12-08T05:14:55.285Z,2.85
2023-12-08T05:17:22.111Z,2.93
2023-12-08T05:19:48.887Z,3.00
2023-12-08T05:22:15.670Z,3.01
2023-12-08T05:24:42.140Z,3.01
2023-12-08T05:27:09.426Z,2.90
2023-12-08T05:29:36.358Z,2.78
2023-12-08T05:32:03.296Z,2.85
2023-12-08T05:34:30.176Z,2.91
2023-12-08T05:36:56.962Z,2.92
2023-12-08T05:39:23.655Z,2.89
2023-12-08T05:41:50.134Z,2.92
2023-12-08T05:44:16.880Z,2.92
2023-12-08T05:46:43.999Z,2.92
2023-12-08T05:49:10.931Z,2.89
2023-12-08T05:51:37.625Z,2.89
2023-12-08T05:54:04.562Z,2.90
2023-12-08T05:56:31.540Z,2.90
2023-12-08T05:58:58.302Z,2.90
2023-12-08T06:01:24.758Z,2.91
2023-12-08T06:03:51.373Z,2.88
2023-12-08T06:06:18.263Z,2.88
2023-12-08T06:08:44.883Z,2.85
2023-12-08T06:11:11.816Z,2.85
2023-12-08T06:13:38.401Z,2.86
2023-12-08T06:16:05.780Z,2.83
2023-12-08T06:18:32.542Z,2.79
2023-12-08T06:20:59.462Z,2.81
2023-12-08T06:23:26.708Z,2.71
2023-12-08T06:25:53.506Z,2.68
2023-12-08T06:28:20.080Z,2.71
2023-12-08T06:30:47.006Z,2.71
2023-12-08T06:33:13.698Z,2.75
2023-12-08T06:35:40.518Z,2.66
2023-12-08T06:38:07.060Z,2.56
2023-12-08T06:40:33.558Z,2.63
2023-12-08T06:43:00.122Z,2.65
2023-12-08T06:45:26.595Z,2.72
2023-12-08T06:47:53.449Z,2.74
2023-12-08T06:50:20.441Z,2.69
2023-12-08T06:52:47.936Z,2.70
2023-12-08T06:55:14.584Z,2.76
2023-12-08T06:57:41.108Z,2.65
2023-12-08T07:00:11.369Z,2.65
2023-12-08T07:02:38.378Z,2.62
2023-12-08T07:05:05.547Z,2.67
2023-12-08T07:07:32.247Z,2.70
2023-12-08T07:09:58.688Z,2.70
2023-12-08T07:12:25.251Z,2.75
2023-12-08T07:14:52.038Z,2.75
2023-12-08T07:17:18.672Z,2.69
2023-12-08T07:19:45.425Z,2.74
2023-12-08T07:22:12.097Z,2.72
2023-12-08T07:24:39.939Z,2.68
2023-12-08T07:27:07.303Z,2.68
2023-12-08T07:29:33.915Z,2.73
2023-12-08T07:32:00.788Z,2.81
2023-12-08T07:34:27.378Z,2.83
2023-12-08T07:36:53.952Z,2.82
2023-12-08T07:39:20.839Z,2.88
2023-12-08T07:41:47.393Z,2.92
2023-12-08T07:44:14.694Z,2.96
2023-12-08T07:46:41.544Z,2.94
2023-12-08T07:49:08.196Z,2.97
2023-12-08T07:51:34.838Z,3.01
2023-12-08T07:54:03.161Z,3.03
2023-12-08T07:56:30.230Z,2.89
2023-12-08T07:58:56.729Z,2.92
2023-12-08T08:01:23.267Z,2.98
2023-12-08T08:03:49.794Z,3.04
2023-12-08T08:06:16.627Z,3.08
2023-12-08T08:08:43.280Z,3.13
2023-12-08T08:11:10.423Z,3.14
2023-12-08T08:13:36.902Z,3.16
2023-12-08T08:16:03.563Z,3.18
2023-12-08T08:18:30.524Z,3.21
2023-12-08T08:20:57.398Z,3.21
2023-12-08T08:23:24.189Z,3.23
2023-12-08T08:25:50.826Z,3.28
2023-12-08T08:28:17.442Z,3.25
2023-12-08T08:30:44.510Z,3.29
2023-12-08T08:33:11.406Z,3.33
2023-12-08T08:35:38.849Z,3.35
2023-12-08T08:38:05.529Z,3.36
2023-12-08T08:40:33.388Z,3.37
2023-12-08T08:42:59.892Z,3.42
2023-12-08T08:45:27.109Z,3.42
2023-12-08T08:47:54.292Z,3.44
2023-12-08T08:50:22.305Z,3.46
2023-12-08T08:52:49.211Z,3.49
2023-12-08T08:55:15.918Z,3.50
2023-12-08T08:57:42.502Z,3.49
2023-12-08T09:00:14.000Z,3.53
2023-12-08T09:02:42.416Z,3.57
2023-12-08T09:05:09.243Z,3.54
2023-12-08T09:07:37.325Z,3.58
2023-12-08T09:10:04.690Z,3.59
2023-12-08T09:12:31.429Z,3.63
2023-12-08T09:14:58.399Z,3.63
2023-12-08T09:17:24.996Z,3.61
2023-12-08T09:19:52.249Z,3.66
2023-12-08T09:22:19.048Z,3.68
2023-12-08T09:24:45.658Z,3.70
2023-12-08T09:27:12.367Z,3.71
2023-12-08T09:29:39.139Z,3.72
2023-12-08T09:32:06.446Z,3.74
2023-12-08T09:34:34.182Z,3.79
2023-12-08T09:37:25.952Z,3.81
2023-12-08T09:39:47.602Z,3.83
2023-12-08T09:42:33.280Z,3.85
2023-12-08T09:45:01.987Z,3.87
2023-12-08T09:47:30.784Z,3.91
2023-12-08T09:50:00.705Z,3.92
2023-12-08T09:52:27.704Z,3.95
2023-12-08T09:54:54.913Z,3.99
2023-12-08T09:57:22.322Z,3.97
2023-12-08T09:59:51.638Z,3.97
2023-12-08T10:02:19.754Z,3.95
2023-12-08T10:04:47.147Z,4.02
2023-12-08T10:07:14.412Z,4.07
2023-12-08T10:09:42.397Z,4.10
2023-12-08T10:12:09.097Z,4.12
2023-12-08T10:14:35.685Z,4.13
2023-12-08T10:17:03.582Z,4.14
2023-12-08T10:19:30.179Z,4.19
2023-12-08T10:22:03.416Z,4.20
2023-12-08T10:24:31.683Z,4.20
2023-12-08T10:27:00.328Z,4.19
2023-12-08T10:29:34.457Z,4.21
2023-12-08T10:32:02.058Z,4.26
2023-12-08T10:34:29.349Z,4.28
2023-12-08T10:36:56.367Z,4.30
2023-12-08T10:39:24.098Z,4.24
2023-12-08T10:41:52.254Z,4.27
2023-12-08T10:44:21.570Z,4.25
2023-12-08T10:46:49.538Z,4.32
2023-12-08T10:49:20.551Z,4.29
2023-12-08T10:51:48.574Z,4.33
2023-12-08T10:54:17.535Z,4.38
2023-12-08T10:56:46.211Z,4.38
2023-12-08T10:59:19.174Z,4.43
2023-12-08T11:01:47.567Z,4.42
2023-12-08T11:04:22.586Z,4.48
2023-12-08T11:07:04.161Z,4.46
2023-12-08T11:09:36.468Z,4.51
2023-12-08T11:12:07.834Z,4.55
2023-12-08T11:14:49.547Z,4.55
2023-12-08T11:17:43.157Z,4.60
2023-12-08T11:20:11.093Z,4.64
2023-12-08T11:22:38.116Z,4.67
2023-12-08T11:25:11.001Z,4.69
2023-12-08T11:27:49.053Z,4.72
2023-12-08T11:30:44.696Z,4.75
2023-12-08T11:33:27.904Z,4.76
2023-12-08T11:36:06.186Z,4.78
2023-12-08T11:38:32.868Z,4.81
2023-12-08T11:40:59.547Z,4.86
2023-12-08T11:43:27.446Z,4.85
2023-12-08T11:45:54.008Z,4.89
2023-12-08T11:48:23.587Z,4.87
2023-12-08T11:50:50.801Z,4.94
2023-12-08T11:53:18.288Z,4.87
2023-12-08T11:55:45.309Z,4.89
2023-12-08T11:58:12.912Z,4.86
2023-12-08T12:00:40.470Z,4.91
2023-12-08T12:03:09.245Z,4.91
2023-12-08T12:05:39.955Z,4.93
2023-12-08T12:08:08.748Z,4.93
2023-12-08T12:10:35.791Z,4.98
2023-12-08T12:13:06.591Z,5.00
2023-12-08T12:15:36.527Z,5.02
2023-12-08T12:18:04.083Z,5.04
2023-12-08T12:20:40.088Z,5.05
2023-12-08T12:23:07.146Z,5.06
2023-12-08T12:25:34.145Z,5.05
2023-12-08T12:28:00.760Z,5.04
2023-12-08T12:30:27.346Z,5.06
2023-12-08T12:32:54.344Z,5.05
2023-12-08T12:35:21.176Z,5.07
2023-12-08T12:37:47.793Z,5.05
2023-12-08T12:40:14.325Z,5.04
2023-12-08T12:42:43.157Z,5.04
2023-12-08T12:45:11.283Z,5.06
2023-12-08T12:47:38.393Z,5.07
2023-12-08T12:50:08.612Z,5.08
2023-12-08T12:52:41.377Z,5.13
2023-12-08T12:55:28.437Z,5.06
2023-12-08T12:57:55.018Z,5.13
2023-12-08T13:00:40.209Z,5.13
2023-12-08T13:03:11.658Z,5.16
2023-12-08T13:05:45.529Z,5.18
2023-12-08T13:08:14.264Z,5.18
2023-12-08T13:10:42.747Z,5.13
2023-12-08T13:13:09.174Z,5.15
2023-12-08T13:15:37.052Z,5.18
2023-12-08T13:18:04.838Z,5.15
2023-12-08T13:20:34.494Z,5.19
2023-12-08T13:23:02.556Z,5.17
2023-12-08T13:25:29.018Z,5.15
2023-12-08T13:27:55.513Z,5.20
2023-12-08T13:30:22.411Z,5.23
2023-12-08T13:32:49.113Z,5.25
2023-12-08T13:35:15.707Z,5.30
2023-12-08T13:37:43.170Z,5.31
2023-12-08T13:40:13.083Z,5.26
2023-12-08T13:42:40.412Z,5.34
2023-12-08T13:45:08.374Z,5.38
2023-12-08T13:47:34.978Z,5.36
2023-12-08T13:50:01.485Z,5.31
2023-12-08T13:52:28.326Z,5.36
2023-12-08T13:54:54.880Z,5.33
2023-12-08T13:57:21.359Z,5.32
2023-12-08T13:59:47.881Z,5.37
2023-12-08T14:02:14.330Z,5.31
2023-12-08T14:04:40.979Z,5.35
2023-12-08T14:07:07.558Z,5.34
2023-12-08T14:09:34.063Z,5.34
2023-12-08T14:12:01.566Z,5.35
2023-12-08T14:14:28.112Z,5.32
2023-12-08T14:16:54.629Z,5.34
2023-12-08T14:19:21.341Z,5.37
2023-12-08T14:21:48.466Z,5.35
2023-12-08T14:24:15.201Z,5.42
2023-12-08T14:26:42.369Z,5.47
2023-12-08T14:29:08.959Z,5.48
2023-12-08T14:31:35.377Z,5.48
2023-12-08T14:34:02.017Z,5.50
2023-12-08T14:36:28.836Z,5.45
2023-12-08T14:38:55.397Z,5.49
2023-12-08T14:41:21.959Z,5.48
2023-12-08T14:43:48.603Z,5.48
2023-12-08T14:46:19.805Z,5.51
2023-12-08T14:48:46.547Z,5.54
2023-12-08T14:51:23.888Z,5.54
2023-12-08T14:53:50.924Z,5.46
2023-12-08T14:56:18.954Z,5.41
2023-12-08T14:58:45.591Z,5.45
2023-12-08T15:01:16.916Z,5.51
2023-12-08T15:03:45.779Z,5.50
2023-12-08T15:06:13.723Z,5.53
2023-12-08T15:08:41.422Z,5.51
2023-12-08T15:11:08.385Z,5.53
2023-12-08T15:13:35.153Z,5.57
2023-12-08T15:16:01.877Z,5.57
2023-12-08T15:18:28.561Z,5.62
2023-12-08T15:20:55.796Z,5.56
2023-12-08T15:23:24.521Z,5.53
2023-12-08T15:25:51.160Z,5.58
2023-12-08T15:28:17.614Z,5.58
2023-12-08T15:30:44.081Z,5.52
2023-12-08T15:33:10.951Z,5.53
2023-12-08T15:35:37.570Z,5.53
2023-12-08T15:38:06.459Z,5.61
2023-12-08T15:40:35.240Z,5.59
2023-12-08T15:43:01.707Z,5.56
2023-12-08T15:45:28.186Z,5.49
2023-12-08T15:47:54.936Z,5.51
2023-12-08T15:50:21.695Z,5.47
2023-12-08T15:52:48.261Z,5.48
2023-12-08T15:55:14.840Z,5.53
2023-12-08T15:57:41.509Z,5.57
2023-12-08T16:00:08.643Z,5.53
2023-12-08T16:02:40.698Z,5.47
2023-12-08T16:05:07.618Z,5.54
2023-12-08T16:07:34.604Z,5.50
2023-12-08T16:10:01.094Z,5.51
2023-12-08T16:12:28.202Z,5.45
2023-12-08T16:14:55.026Z,5.48
2023-12-08T16:17:21.744Z,5.43
2023-12-08T16:19:48.540Z,5.50
2023-12-08T16:22:16.138Z,5.57
2023-12-08T16:24:47.679Z,5.59
2023-12-08T16:27:14.580Z,5.61
2023-12-08T16:29:45.451Z,5.62
2023-12-08T16:32:13.022Z,5.63
2023-12-08T16:34:39.658Z,5.51
2023-12-08T16:37:06.321Z,5.51
2023-12-08T16:39:33.550Z,5.55
2023-12-08T16:42:00.101Z,5.57
2023-12-08T16:44:26.601Z,5.61
2023-12-08T16:46:53.525Z,5.63
2023-12-08T16:49:20.180Z,5.64
2023-12-08T16:51:46.714Z,5.64
2023-12-08T16:54:13.249Z,5.62
2023-12-08T16:56:39.763Z,5.64
2023-12-08T16:59:06.214Z,5.67
2023-12-08T17:01:34.295Z,5.68
2023-12-08T17:04:01.251Z,5.65
2023-12-08T17:06:28.243Z,5.69
2023-12-08T17:08:55.056Z,5.72
2023-12-08T17:11:21.687Z,5.66
2023-12-08T17:13:48.220Z,5.66
2023-12-08T17:16:14.894Z,5.67
2023-12-08T17:18:42.064Z,5.69
2023-12-08T17:21:08.851Z,5.66
2023-12-08T17:23:35.422Z,5.63
2023-12-08T17:26:01.863Z,5.67
2023-12-08T17:28:28.328Z,5.68
2023-12-08T17:30:54.911Z,5.68
2023-12-08T17:33:21.631Z,5.71
2023-12-08T17:35:48.353Z,5.73
2023-12-08T17:38:17.037Z,5.71
2023-12-08T17:40:44.307Z,5.71
2023-12-08T17:43:11.877Z,5.73
2023-12-08T17:45:39.031Z,5.74
2023-12-08T17:48:08.821Z,5.73
2023-12-08T17:50:35.636Z,5.72
2023-12-08T17:53:02.096Z,5.75
2023-12-08T17:55:28.943Z,5.76
2023-12-08T17:57:55.476Z,5.77
2023-12-08T18:00:22.098Z,5.79
2023-12-08T18:02:56.046Z,5.80
2023-12-08T18:05:22.938Z,5.82
2023-12-08T18:07:49.472Z,5.85
2023-12-08T18:10:16.125Z,5.84
2023-12-08T18:12:42.673Z,5.85
2023-12-08T18:15:09.929Z,5.88
2023-12-08T18:17:37.159Z,5.90
2023-12-08T18:20:04.603Z,5.90
2023-12-08T18:22:32.863Z,5.91
2023-12-08T18:24:59.450Z,5.92
2023-12-08T18:27:38.059Z,5.95
2023-12-08T18:30:14.027Z,5.94
2023-12-08T18:32:41.780Z,5.96
2023-12-08T18:35:08.775Z,5.96
2023-12-08T18:37:35.272Z,5.96
2023-12-08T18:40:02.074Z,5.99
2023-12-08T18:42:28.953Z,5.98
2023-12-08T18:44:55.731Z,5.99
2023-12-08T18:47:23.316Z,5.99
2023-12-08T18:49:50.066Z,5.95
2023-12-08T18:52:16.878Z,5.98
2023-12-08T18:54:43.527Z,6.00
2023-12-08T18:57:10.134Z,6.01
2023-12-08T18:59:39.185Z,6.01
2023-12-08T19:02:06.548Z,6.03
2023-12-08T19:04:34.692Z,6.05
2023-12-08T19:07:04.862Z,6.03
2023-12-08T19:09:31.516Z,6.04
2023-12-08T19:11:59.438Z,6.03
2023-12-08T19:14:27.588Z,6.04
2023-12-08T19:16:54.234Z,6.04
2023-12-08T19:19:22.242Z,6.05
2023-12-08T19:21:48.914Z,6.06
2023-12-08T19:24:15.514Z,6.06
2023-12-08T19:26:42.072Z,6.06
2023-12-08T19:29:08.715Z,6.07
2023-12-08T19:31:35.747Z,6.07
2023-12-08T19:34:02.440Z,6.07
2023-12-08T19:36:29.083Z,6.07
2023-12-08T19:39:00.463Z,6.08
2023-12-08T19:41:28.003Z,6.08
2023-12-08T19:43:55.843Z,6.09
2023-12-08T19:46:22.650Z,6.09
2023-12-08T19:48:49.373Z,6.10
2023-12-08T19:51:16.142Z,6.10
2023-12-08T19:53:42.897Z,6.10
2023-12-08T19:56:10.042Z,6.11
2023-12-08T19:58:36.676Z,6.10
2023-12-08T20:01:03.570Z,6.08
2023-12-08T20:03:30.265Z,6.09
2023-12-08T20:05:57.090Z,6.04
2023-12-08T20:08:23.664Z,6.05
2023-12-08T20:10:50.178Z,6.08
2023-12-08T20:13:16.719Z,6.10
2023-12-08T20:15:45.687Z,6.11
2023-12-08T20:18:12.761Z,6.12
2023-12-08T20:20:39.963Z,6.13
2023-12-08T20:23:06.882Z,6.14
2023-12-08T20:25:33.456Z,6.13
2023-12-08T20:27:59.968Z,6.12
2023-12-08T20:30:26.961Z,6.13
2023-12-08T20:32:56.879Z,6.14
2023-12-08T20:35:23.654Z,6.13
2023-12-08T20:37:52.812Z,6.14
2023-12-08T20:40:19.509Z,6.10
2023-12-08T20:42:45.972Z,6.12
2023-12-08T20:45:12.790Z,6.13
2023-12-08T20:47:39.550Z,6.15
2023-12-08T20:50:06.686Z,6.15
2023-12-08T20:52:33.208Z,6.17
2023-12-08T20:54:59.868Z,6.17
2023-12-08T20:57:26.986Z,6.19
2023-12-08T20:59:53.796Z,6.18
2023-12-08T21:02:22.101Z,6.19
2023-12-08T21:04:49.246Z,6.21
2023-12-08T21:07:16.202Z,6.21
2023-12-08T21:09:42.946Z,6.19
2023-12-08T21:12:09.492Z,6.21
2023-12-08T21:14:36.125Z,6.22
2023-12-08T21:17:03.330Z,6.22
2023-12-08T21:19:31.660Z,6.23
2023-12-08T21:22:02.175Z,6.23
2023-12-08T21:24:29.032Z,6.23
2023-12-08T21:26:55.599Z,6.23
2023-12-08T21:29:22.249Z,6.23
2023-12-08T21:31:51.640Z,6.24
2023-12-08T21:34:18.428Z,6.23
2023-12-08T21:36:45.000Z,6.23
2023-12-08T21:39:11.584Z,6.24
2023-12-08T21:41:38.346Z,6.25
2023-12-08T21:44:07.804Z,6.25
2023-12-08T21:46:34.829Z,6.23
2023-12-08T21:49:01.762Z,6.24
2023-12-08T21:51:30.842Z,6.24
2023-12-08T21:53:58.755Z,6.24
2023-12-08T21:56:29.884Z,6.24
2023-12-08T21:58:59.966Z,6.24
2023-12-08T22:01:27.249Z,6.24
2023-12-08T22:03:57.303Z,6.23
2023-12-08T22:06:24.335Z,6.23
2023-12-08T22:08:51.873Z,6.23
2023-12-08T22:11:18.967Z,6.24
2023-12-08T22:13:46.724Z,6.26
2023-12-08T22:16:13.250Z,6.24
2023-12-08T22:18:41.720Z,6.24
2023-12-08T22:21:09.859Z,6.26
2023-12-08T22:23:38.339Z,6.25
2023-12-08T22:26:05.123Z,6.26
2023-12-08T22:28:31.794Z,6.27
2023-12-08T22:30:58.621Z,6.27
2023-12-08T22:33:25.504Z,6.26
2023-12-08T22:35:53.276Z,6.27
2023-12-08T22:38:20.246Z,6.29
2023-12-08T22:40:46.989Z,6.28
2023-12-08T22:43:13.475Z,6.29
2023-12-08T22:45:40.560Z,6.30
2023-12-08T22:48:07.285Z,6.29
2023-12-08T22:50:43.094Z,6.29
2023-12-08T22:53:13.466Z,6.31
2023-12-08T22:55:40.478Z,6.31
2023-12-08T22:58:07.047Z,6.31
2023-12-08T23:00:33.695Z,6.31
2023-12-08T23:03:00.431Z,6.32
2023-12-08T23:05:26.994Z,6.33
2023-12-08T23:07:53.744Z,6.34
2023-12-08T23:10:20.523Z,6.35
2023-12-08T23:12:47.717Z,6.34
2023-12-08T23:15:14.469Z,6.36
2023-12-08T23:17:41.337Z,6.35
2023-12-08T23:20:12.398Z,6.36
2023-12-08T23:22:39.060Z,6.37
2023-12-08T23:25:06.660Z,6.37
2023-12-08T23:27:33.389Z,6.39
2023-12-08T23:30:00.150Z,6.39
2023-12-08T23:32:28.475Z,6.40
2023-12-08T23:34:55.314Z,6.40
2023-12-08T23:37:22.629Z,6.40
2023-12-08T23:39:49.265Z,6.41
2023-12-08T23:42:15.833Z,6.36
2023-12-08T23:44:42.373Z,6.39
2023-12-08T23:47:09.356Z,6.40
2023-12-08T23:49:35.839Z,6.41
2023-12-08T23:52:02.337Z,6.41
2023-12-08T23:54:28.976Z,6.43
2023-12-08T23:56:55.654Z,6.42
2023-12-08T23:59:22.175Z,6.45
